Wetterdaten: Woche 07.01.13 - 13.01.13 (KW2)
Datum Zeit Temperatur Luftfeuchte Luftdruck Niederschlag Windrichtung Sonnenschein Solar Wind
07.01.2013 00:00 3,4 C 97 % 1029,8 hPa 0,2 l/m SW 0,00 h 0 W/m 4,9 km/h (1 Bft)
07.01.2013 01:00 3,3 C 97 % 1029,6 hPa 0,0 l/m SW 0,00 h 0 W/m 6,6 km/h (2 Bft)
07.01.2013 02:00 3,2 C 98 % 1029,4 hPa 0,0 l/m SW 0,00 h 0 W/m 8,6 km/h (2 Bft)
07.01.2013 03:00 3,0 C 98 % 1029,1 hPa 0,0 l/m SW 0,00 h 0 W/m 5,8 km/h (1 Bft)
07.01.2013 04:00 2,9 C 98 % 1028,9 hPa 0,0 l/m SW 0,00 h 0 W/m 4,0 km/h (1 Bft)
07.01.2013 05:00 3,0 C 98 % 1028,6 hPa 0,0 l/m SW 0,00 h 0 W/m 3,6 km/h (1 Bft)
07.01.2013 06:00 2,9 C 98 % 1028,3 hPa 0,0 l/m S-SW 0,00 h 0 W/m 7,8 km/h (2 Bft)
07.01.2013 07:00 2,8 C 98 % 1028,4 hPa 0,0 l/m S-SW 0,00 h 0 W/m 7,2 km/h (2 Bft)
07.01.2013 08:00 2,8 C 98 % 1028,8 hPa 0,0 l/m S-SW 0,00 h 9 W/m 4,1 km/h (1 Bft)
07.01.2013 09:00 3,0 C 99 % 1029,2 hPa 0,0 l/m S-SW 0,00 h 49 W/m 3,7 km/h (1 Bft)
07.01.2013 10:00 3,5 C 99 % 1029,6 hPa 0,0 l/m N 0,00 h 37 W/m 1,3 km/h (1 Bft)
07.01.2013 11:00 4,0 C 99 % 1029,3 hPa 0,0 l/m S-SW 0,00 h 81 W/m 1,9 km/h (1 Bft)
07.01.2013 12:00 4,5 C 97 % 1028,4 hPa 0,0 l/m S-SW 0,00 h 115 W/m 6,9 km/h (2 Bft)
07.01.2013 13:00 4,7 C 96 % 1027,7 hPa 0,0 l/m SW 0,25 h 162 W/m 4,3 km/h (1 Bft)
07.01.2013 14:00 5,6 C 91 % 1027,8 hPa 0,0 l/m NW 0,92 h 195 W/m 5,7 km/h (1 Bft)
07.01.2013 15:00 5,9 C 88 % 1027,8 hPa 0,0 l/m N-NO 0,83 h 118 W/m 7,4 km/h (2 Bft)
07.01.2013 16:00 5,6 C 88 % 1027,6 hPa 0,0 l/m N 0,00 h 15 W/m 2,3 km/h (1 Bft)
07.01.2013 17:00 4,6 C 90 % 1027,2 hPa 0,0 l/m N 0,00 h 0 W/m 0,8 km/h (0 Bft)
07.01.2013 18:00 3,6 C 91 % 1027,3 hPa 0,0 l/m N 0,00 h 0 W/m 0,0 km/h (0 Bft)
07.01.2013 19:00 3,0 C 93 % 1027,4 hPa 0,0 l/m N 0,00 h 0 W/m 0,4 km/h (0 Bft)
07.01.2013 20:00 2,7 C 94 % 1027,4 hPa 0,0 l/m N 0,00 h 0 W/m 0,3 km/h (0 Bft)
07.01.2013 21:00 2,5 C 95 % 1027,2 hPa 0,0 l/m N-NO 0,00 h 0 W/m 1,3 km/h (1 Bft)
07.01.2013 22:00 2,3 C 95 % 1027,2 hPa 0,0 l/m N 0,00 h 0 W/m 0,3 km/h (0 Bft)
07.01.2013 23:00 2,1 C 96 % 1027,1 hPa 0,0 l/m N 0,00 h 0 W/m 0,4 km/h (0 Bft)
08.01.2013 00:00 2,1 C 96 % 1026,7 hPa 0,0 l/m N 0,00 h 0 W/m 0,0 km/h (0 Bft)
08.01.2013 01:00 2,2 C 97 % 1026,4 hPa 0,0 l/m N 0,00 h 0 W/m 0,0 km/h (0 Bft)
08.01.2013 02:00 2,3 C 97 % 1026,5 hPa 0,0 l/m N-NO 0,00 h 0 W/m 0,8 km/h (0 Bft)
08.01.2013 03:00 2,4 C 98 % 1026,3 hPa 0,0 l/m N-NO 0,00 h 0 W/m 1,7 km/h (1 Bft)
08.01.2013 04:00 2,7 C 98 % 1025,8 hPa 0,0 l/m SW 0,00 h 0 W/m 5,9 km/h (2 Bft)
08.01.2013 05:00 2,8 C 98 % 1025,6 hPa 0,0 l/m SW 0,00 h 0 W/m 11,3 km/h (2 Bft)
08.01.2013 06:00 2,6 C 98 % 1025,3 hPa 0,0 l/m SW 0,00 h 0 W/m 10,9 km/h (2 Bft)
08.01.2013 07:00 2,4 C 97 % 1025,4 hPa 0,0 l/m SW 0,00 h 0 W/m 9,8 km/h (2 Bft)
08.01.2013 08:00 2,2 C 98 % 1025,7 hPa 0,0 l/m SW 0,00 h 12 W/m 8,0 km/h (2 Bft)
08.01.2013 09:00 2,1 C 97 % 1026,1 hPa 0,0 l/m S-SW 0,00 h 27 W/m 10,3 km/h (2 Bft)
08.01.2013 10:00 2,1 C 97 % 1026,4 hPa 0,0 l/m SW 0,00 h 62 W/m 12,9 km/h (3 Bft)
08.01.2013 11:00 2,3 C 97 % 1026,4 hPa 0,0 l/m SW 0,00 h 111 W/m 13,6 km/h (3 Bft)
08.01.2013 12:00 2,8 C 95 % 1025,9 hPa 0,0 l/m S-SW 0,08 h 138 W/m 14,1 km/h (3 Bft)
08.01.2013 13:00 3,4 C 93 % 1025,6 hPa 0,0 l/m S-SW 0,00 h 108 W/m 11,6 km/h (2 Bft)
08.01.2013 14:00 4,0 C 92 % 1025,2 hPa 0,0 l/m S-SW 0,17 h 112 W/m 9,7 km/h (2 Bft)
08.01.2013 15:00 4,3 C 91 % 1025,0 hPa 0,0 l/m S-SW 0,50 h 85 W/m 11,3 km/h (2 Bft)
08.01.2013 16:00 4,1 C 91 % 1025,0 hPa 0,0 l/m S-SW 0,50 h 22 W/m 12,6 km/h (3 Bft)
08.01.2013 17:00 3,6 C 91 % 1025,3 hPa 0,0 l/m S-SW 0,00 h 0 W/m 6,8 km/h (2 Bft)
08.01.2013 18:00 3,2 C 93 % 1025,6 hPa 0,0 l/m S-SW 0,00 h 0 W/m 4,8 km/h (1 Bft)
08.01.2013 19:00 2,9 C 93 % 1025,6 hPa 0,0 l/m S-SW 0,00 h 0 W/m 3,6 km/h (1 Bft)
08.01.2013 20:00 2,7 C 94 % 1025,5 hPa 0,0 l/m N 0,00 h 0 W/m 0,8 km/h (0 Bft)
08.01.2013 21:00 2,6 C 94 % 1025,6 hPa 0,0 l/m N 0,00 h 0 W/m 1,5 km/h (1 Bft)
08.01.2013 22:00 2,6 C 95 % 1025,3 hPa 0,0 l/m W-NW 0,00 h 0 W/m 0,8 km/h (0 Bft)
08.01.2013 23:00 2,6 C 95 % 1025,4 hPa 0,0 l/m NW 0,00 h 0 W/m 4,0 km/h (1 Bft)
09.01.2013 00:00 2,5 C 95 % 1025,0 hPa 0,0 l/m NW 0,00 h 0 W/m 3,3 km/h (1 Bft)
09.01.2013 01:00 2,3 C 95 % 1024,7 hPa 0,0 l/m NW 0,00 h 0 W/m 2,7 km/h (1 Bft)
09.01.2013 02:00 2,1 C 95 % 1024,7 hPa 0,0 l/m N 0,00 h 0 W/m 1,6 km/h (1 Bft)
09.01.2013 03:00 1,9 C 95 % 1024,4 hPa 0,0 l/m N 0,00 h 0 W/m 0,7 km/h (0 Bft)
09.01.2013 04:00 1,6 C 94 % 1023,9 hPa 0,0 l/m N 0,00 h 0 W/m 0,4 km/h (0 Bft)
09.01.2013 05:00 1,3 C 94 % 1023,6 hPa 0,0 l/m N 0,00 h 0 W/m 2,4 km/h (1 Bft)
09.01.2013 06:00 1,0 C 94 % 1023,3 hPa 0,0 l/m NW 0,00 h 0 W/m 1,6 km/h (1 Bft)
09.01.2013 07:00 0,9 C 95 % 1022,9 hPa 0,0 l/m N 0,00 h 0 W/m 2,0 km/h (1 Bft)
09.01.2013 08:00 0,7 C 95 % 1022,8 hPa 0,0 l/m W-NW 0,00 h 10 W/m 3,7 km/h (1 Bft)
09.01.2013 09:00 0,7 C 96 % 1022,6 hPa 0,0 l/m SW 0,00 h 28 W/m 4,3 km/h (1 Bft)
09.01.2013 10:00 0,7 C 96 % 1022,3 hPa 0,0 l/m SW 0,00 h 40 W/m 7,5 km/h (2 Bft)
09.01.2013 11:00 0,8 C 96 % 1022,0 hPa 0,0 l/m SW 0,00 h 68 W/m 6,3 km/h (2 Bft)
09.01.2013 12:00 1,2 C 96 % 1021,1 hPa 0,0 l/m SW 0,00 h 86 W/m 6,5 km/h (2 Bft)
09.01.2013 13:00 1,6 C 95 % 1019,8 hPa 0,0 l/m S-SW 0,00 h 124 W/m 8,0 km/h (2 Bft)
09.01.2013 14:00 1,7 C 93 % 1019,3 hPa 0,0 l/m S-SW 0,00 h 82 W/m 8,9 km/h (2 Bft)
09.01.2013 15:00 1,2 C 93 % 1019,0 hPa 0,0 l/m S-SW 0,00 h 28 W/m 9,4 km/h (2 Bft)
09.01.2013 16:00 0,6 C 94 % 1018,7 hPa 0,0 l/m S-SW 0,00 h 9 W/m 13,2 km/h (3 Bft)
09.01.2013 17:00 0,0 C 96 % 1018,4 hPa 0,0 l/m S-SW 0,00 h 0 W/m 11,4 km/h (2 Bft)
09.01.2013 18:00 -0,3 C 96 % 1018,2 hPa 0,0 l/m SW 0,00 h 0 W/m 9,0 km/h (2 Bft)
09.01.2013 19:00 -0,4 C 96 % 1018,0 hPa 0,0 l/m SW 0,00 h 0 W/m 5,6 km/h (1 Bft)
09.01.2013 20:00 -0,7 C 96 % 1017,8 hPa 0,0 l/m SW 0,00 h 0 W/m 7,9 km/h (2 Bft)
09.01.2013 21:00 -0,7 C 97 % 1017,6 hPa 0,0 l/m S-SW 0,00 h 0 W/m 6,7 km/h (2 Bft)
09.01.2013 22:00 -0,7 C 97 % 1017,5 hPa 0,0 l/m S-SW 0,00 h 0 W/m 2,7 km/h (1 Bft)
09.01.2013 23:00 -0,4 C 97 % 1017,5 hPa 0,0 l/m S-SW 0,00 h 0 W/m 3,2 km/h (1 Bft)
10.01.2013 00:00 -0,2 C 97 % 1017,0 hPa 0,0 l/m S-SW 0,00 h 0 W/m 7,5 km/h (2 Bft)
10.01.2013 01:00 -0,2 C 97 % 1017,0 hPa 0,0 l/m S-SW 0,00 h 0 W/m 6,4 km/h (2 Bft)
10.01.2013 02:00 -0,2 C 97 % 1017,0 hPa 0,0 l/m S-SW 0,00 h 0 W/m 6,8 km/h (2 Bft)
10.01.2013 03:00 -0,2 C 97 % 1016,5 hPa 0,0 l/m S-SW 0,00 h 0 W/m 7,1 km/h (2 Bft)
10.01.2013 04:00 -0,2 C 97 % 1016,1 hPa 0,0 l/m S-SW 0,00 h 0 W/m 9,5 km/h (2 Bft)
10.01.2013 05:00 -0,0 C 98 % 1015,7 hPa 0,0 l/m S-SW 0,00 h 0 W/m 9,7 km/h (2 Bft)
10.01.2013 06:00 0,1 C 98 % 1015,4 hPa 0,0 l/m S-SW 0,00 h 0 W/m 7,1 km/h (2 Bft)
10.01.2013 07:00 0,1 C 98 % 1015,6 hPa 0,0 l/m S-SW 0,00 h 0 W/m 6,7 km/h (2 Bft)
10.01.2013 08:00 0,1 C 98 % 1015,8 hPa 0,0 l/m S-SW 0,00 h 9 W/m 4,8 km/h (1 Bft)
10.01.2013 09:00 0,3 C 98 % 1015,7 hPa 0,0 l/m S-SW 0,00 h 35 W/m 5,9 km/h (2 Bft)
10.01.2013 10:00 0,6 C 98 % 1015,6 hPa 0,0 l/m S-SW 0,00 h 41 W/m 5,1 km/h (1 Bft)
10.01.2013 11:00 1,4 C 99 % 1015,0 hPa 0,0 l/m S-SW 0,00 h 121 W/m 11,1 km/h (2 Bft)
10.01.2013 12:00 1,7 C 98 % 1014,4 hPa 0,6 l/m SW 0,00 h 74 W/m 11,6 km/h (2 Bft)
10.01.2013 13:00 1,9 C 98 % 1013,8 hPa 0,6 l/m W-SW 0,00 h 80 W/m 13,4 km/h (3 Bft)
10.01.2013 14:00 2,3 C 98 % 1013,0 hPa 0,4 l/m SW 0,00 h 46 W/m 17,8 km/h (3 Bft)
10.01.2013 15:00 2,4 C 97 % 1012,5 hPa 0,0 l/m W-SW 0,00 h 32 W/m 16,4 km/h (3 Bft)
10.01.2013 16:00 2,3 C 96 % 1012,3 hPa 0,0 l/m W-SW 0,00 h 13 W/m 14,0 km/h (3 Bft)
10.01.2013 17:00 2,0 C 96 % 1012,1 hPa 0,0 l/m W-SW 0,00 h 0 W/m 14,2 km/h (3 Bft)
10.01.2013 18:00 2,0 C 96 % 1011,8 hPa 0,4 l/m W-SW 0,00 h 0 W/m 16,9 km/h (3 Bft)
10.01.2013 19:00 1,5 C 96 % 1011,4 hPa 1,2 l/m SW 0,00 h 0 W/m 9,4 km/h (2 Bft)
10.01.2013 20:00 1,8 C 97 % 1011,0 hPa 0,0 l/m W-SW 0,00 h 0 W/m 11,0 km/h (2 Bft)
10.01.2013 21:00 2,2 C 97 % 1011,0 hPa 0,0 l/m W 0,00 h 0 W/m 10,2 km/h (2 Bft)
10.01.2013 22:00 2,3 C 97 % 1010,8 hPa 0,0 l/m W 0,00 h 0 W/m 4,4 km/h (1 Bft)
10.01.2013 23:00 2,1 C 97 % 1010,8 hPa 0,0 l/m W 0,00 h 0 W/m 5,5 km/h (1 Bft)
11.01.2013 00:00 2,1 C 97 % 1010,6 hPa 0,0 l/m W 0,00 h 0 W/m 6,0 km/h (2 Bft)
11.01.2013 01:00 1,9 C 97 % 1010,4 hPa 0,4 l/m SW 0,00 h 0 W/m 6,4 km/h (2 Bft)
11.01.2013 02:00 1,7 C 97 % 1010,3 hPa 0,0 l/m SW 0,00 h 0 W/m 3,1 km/h (1 Bft)
11.01.2013 03:00 1,7 C 97 % 1010,1 hPa 0,0 l/m SW 0,00 h 0 W/m 3,7 km/h (1 Bft)
11.01.2013 04:00 1,6 C 98 % 1009,9 hPa 0,0 l/m W-NW 0,00 h 0 W/m 4,8 km/h (1 Bft)
11.01.2013 05:00 1,2 C 97 % 1010,0 hPa 0,0 l/m N-NW 0,00 h 0 W/m 7,8 km/h (2 Bft)
11.01.2013 06:00 0,3 C 95 % 1010,6 hPa 0,0 l/m NW 0,00 h 0 W/m 4,1 km/h (1 Bft)
11.01.2013 07:00 -0,4 C 95 % 1011,4 hPa 0,0 l/m N 0,00 h 0 W/m 0,4 km/h (0 Bft)
11.01.2013 08:00 -1,1 C 95 % 1012,3 hPa 0,0 l/m N 0,00 h 18 W/m 0,0 km/h (0 Bft)
11.01.2013 09:00 -0,9 C 96 % 1013,1 hPa 0,0 l/m N-NW 0,00 h 44 W/m 1,7 km/h (1 Bft)
11.01.2013 10:00 -0,2 C 97 % 1013,9 hPa 0,0 l/m N-NW 0,00 h 22 W/m 1,9 km/h (1 Bft)
11.01.2013 11:00 0,3 C 96 % 1014,5 hPa 0,0 l/m W-NW 0,00 h 31 W/m 5,3 km/h (1 Bft)
11.01.2013 12:00 0,9 C 94 % 1014,5 hPa 0,0 l/m W-NW 0,00 h 49 W/m 5,3 km/h (1 Bft)
11.01.2013 13:00 1,4 C 92 % 1014,5 hPa 0,0 l/m W-NW 0,00 h 56 W/m 7,1 km/h (2 Bft)
11.01.2013 14:00 1,7 C 91 % 1015,0 hPa 0,0 l/m W 0,00 h 41 W/m 6,0 km/h (2 Bft)
11.01.2013 15:00 1,7 C 90 % 1015,4 hPa 0,0 l/m W 0,00 h 13 W/m 3,9 km/h (1 Bft)
11.01.2013 16:00 1,4 C 91 % 1015,8 hPa 0,0 l/m W 0,00 h 7 W/m 1,7 km/h (1 Bft)
11.01.2013 17:00 1,1 C 92 % 1016,2 hPa 0,0 l/m W 0,00 h 0 W/m 6,6 km/h (2 Bft)
11.01.2013 18:00 0,8 C 92 % 1016,4 hPa 0,6 l/m W-NW 0,00 h 0 W/m 4,7 km/h (1 Bft)
11.01.2013 19:00 0,6 C 93 % 1016,3 hPa 0,6 l/m N 0,00 h 0 W/m 2,5 km/h (1 Bft)
11.01.2013 20:00 0,6 C 93 % 1016,3 hPa 0,0 l/m N 0,00 h 0 W/m 2,5 km/h (1 Bft)
11.01.2013 21:00 0,5 C 93 % 1016,4 hPa 0,0 l/m N 0,00 h 0 W/m 0,3 km/h (0 Bft)
11.01.2013 22:00 0,4 C 94 % 1016,7 hPa 0,0 l/m W 0,00 h 0 W/m 3,9 km/h (1 Bft)
11.01.2013 23:00 0,4 C 95 % 1016,5 hPa 1,4 l/m W 0,00 h 0 W/m 2,1 km/h (1 Bft)
12.01.2013 00:00 0,3 C 96 % 1016,1 hPa 0,4 l/m W-SW 0,00 h 0 W/m 2,9 km/h (1 Bft)
12.01.2013 01:00 0,4 C 97 % 1015,9 hPa 0,0 l/m W-SW 0,00 h 0 W/m 8,9 km/h (2 Bft)
12.01.2013 02:00 0,4 C 97 % 1016,1 hPa 0,0 l/m W 0,00 h 0 W/m 5,9 km/h (2 Bft)
12.01.2013 03:00 0,4 C 97 % 1015,9 hPa 0,0 l/m N 0,00 h 0 W/m 2,1 km/h (1 Bft)
12.01.2013 04:00 0,3 C 97 % 1015,7 hPa 0,0 l/m N 0,00 h 0 W/m 2,1 km/h (1 Bft)
12.01.2013 05:00 0,0 C 96 % 1015,6 hPa 0,0 l/m W 0,00 h 0 W/m 4,0 km/h (1 Bft)
12.01.2013 06:00 -0,2 C 97 % 1015,7 hPa 0,0 l/m N 0,00 h 0 W/m 2,9 km/h (1 Bft)
12.01.2013 07:00 -0,4 C 97 % 1015,9 hPa 0,0 l/m SW 0,00 h 0 W/m 3,5 km/h (1 Bft)
12.01.2013 08:00 -0,6 C 97 % 1015,9 hPa 0,0 l/m N 0,00 h 9 W/m 2,4 km/h (1 Bft)
12.01.2013 09:00 -0,4 C 97 % 1015,8 hPa 0,0 l/m SW 0,00 h 31 W/m 3,3 km/h (1 Bft)
12.01.2013 10:00 0,3 C 97 % 1015,8 hPa 0,0 l/m SW 0,08 h 86 W/m 3,5 km/h (1 Bft)
12.01.2013 11:00 1,1 C 93 % 1015,6 hPa 0,0 l/m SW 0,67 h 265 W/m 5,2 km/h (1 Bft)
12.01.2013 12:00 1,6 C 88 % 1015,0 hPa 0,0 l/m SW 0,42 h 208 W/m 4,0 km/h (1 Bft)
12.01.2013 13:00 2,0 C 84 % 1014,6 hPa 0,0 l/m SW 0,42 h 189 W/m 8,3 km/h (2 Bft)
12.01.2013 14:00 1,9 C 84 % 1014,6 hPa 0,0 l/m W 0,00 h 82 W/m 3,3 km/h (1 Bft)
12.01.2013 15:00 1,7 C 85 % 1014,6 hPa 0,0 l/m N 0,00 h 53 W/m 1,6 km/h (1 Bft)
12.01.2013 16:00 1,2 C 86 % 1014,5 hPa 0,0 l/m W-NW 0,00 h 13 W/m 2,1 km/h (1 Bft)
12.01.2013 17:00 0,5 C 90 % 1014,5 hPa 0,0 l/m N-NO 0,00 h 0 W/m 4,8 km/h (1 Bft)
12.01.2013 18:00 -0,1 C 93 % 1014,3 hPa 0,0 l/m NO 0,00 h 0 W/m 5,7 km/h (1 Bft)
12.01.2013 19:00 -0,5 C 94 % 1014,3 hPa 0,0 l/m NO 0,00 h 0 W/m 6,4 km/h (2 Bft)
12.01.2013 20:00 -0,8 C 95 % 1014,3 hPa 0,0 l/m NO 0,00 h 0 W/m 6,8 km/h (2 Bft)
12.01.2013 21:00 -0,9 C 96 % 1014,2 hPa 0,0 l/m O-NO 0,00 h 0 W/m 5,7 km/h (1 Bft)
12.01.2013 22:00 -1,1 C 96 % 1014,4 hPa 0,0 l/m O-NO 0,00 h 0 W/m 6,8 km/h (2 Bft)
12.01.2013 23:00 -1,2 C 96 % 1014,1 hPa 0,0 l/m NO 0,00 h 0 W/m 8,4 km/h (2 Bft)
13.01.2013 00:00 -1,3 C 96 % 1013,9 hPa 0,0 l/m O-NO 0,00 h 0 W/m 8,0 km/h (2 Bft)
13.01.2013 01:00 -1,4 C 96 % 1013,6 hPa 0,0 l/m O-NO 0,00 h 0 W/m 8,0 km/h (2 Bft)
13.01.2013 02:00 -1,4 C 96 % 1013,6 hPa 0,0 l/m O-NO 0,00 h 0 W/m 6,1 km/h (2 Bft)
13.01.2013 03:00 -1,4 C 96 % 1013,4 hPa 0,0 l/m O-NO 0,00 h 0 W/m 3,7 km/h (1 Bft)
13.01.2013 04:00 -1,3 C 96 % 1013,0 hPa 0,0 l/m O-NO 0,00 h 0 W/m 5,5 km/h (1 Bft)
13.01.2013 05:00 -1,4 C 95 % 1012,7 hPa 0,0 l/m O 0,00 h 0 W/m 7,8 km/h (2 Bft)
13.01.2013 06:00 -1,4 C 95 % 1012,7 hPa 0,0 l/m O-NO 0,00 h 0 W/m 7,4 km/h (2 Bft)
13.01.2013 07:00 -1,4 C 95 % 1013,0 hPa 0,0 l/m O-NO 0,00 h 0 W/m 7,9 km/h (2 Bft)
13.01.2013 08:00 -1,5 C 95 % 1013,0 hPa 0,0 l/m O-NO 0,00 h 6 W/m 6,7 km/h (2 Bft)
13.01.2013 09:00 -1,5 C 95 % 1013,1 hPa 0,0 l/m O-NO 0,00 h 16 W/m 6,9 km/h (2 Bft)
13.01.2013 10:00 -1,6 C 95 % 1013,2 hPa 0,0 l/m NO 0,00 h 33 W/m 8,2 km/h (2 Bft)
13.01.2013 11:00 -1,4 C 94 % 1013,0 hPa 0,0 l/m NO 0,00 h 33 W/m 6,0 km/h (2 Bft)
13.01.2013 12:00 -1,2 C 94 % 1012,3 hPa 0,0 l/m NO 0,00 h 45 W/m 8,7 km/h (2 Bft)
13.01.2013 13:00 -1,2 C 93 % 1011,6 hPa 0,0 l/m O 0,00 h 48 W/m 9,1 km/h (2 Bft)
13.01.2013 14:00 -1,0 C 93 % 1011,8 hPa 0,0 l/m O-NO 0,00 h 37 W/m 7,6 km/h (2 Bft)
13.01.2013 15:00 -1,2 C 93 % 1011,7 hPa 0,0 l/m O-NO 0,00 h 20 W/m 9,4 km/h (2 Bft)
13.01.2013 16:00 -1,3 C 93 % 1012,0 hPa 0,0 l/m O-NO 0,00 h 8 W/m 5,9 km/h (2 Bft)
13.01.2013 17:00 -1,4 C 93 % 1012,0 hPa 0,0 l/m O-NO 0,00 h 0 W/m 8,0 km/h (2 Bft)
13.01.2013 18:00 -1,5 C 93 % 1011,9 hPa 0,0 l/m O-NO 0,00 h 0 W/m 8,6 km/h (2 Bft)
13.01.2013 19:00 -1,7 C 93 % 1012,0 hPa 0,0 l/m O 0,00 h 0 W/m 8,3 km/h (2 Bft)
13.01.2013 20:00 -1,7 C 93 % 1011,9 hPa 0,0 l/m O-NO 0,00 h 0 W/m 7,0 km/h (2 Bft)
13.01.2013 21:00 -1,7 C 93 % 1011,9 hPa 0,0 l/m O-NO 0,00 h 0 W/m 7,2 km/h (2 Bft)
13.01.2013 22:00 -1,8 C 94 % 1011,9 hPa 0,0 l/m NO 0,00 h 0 W/m 5,2 km/h (1 Bft)
13.01.2013 23:00 -1,9 C 94 % 1011,9 hPa 0,0 l/m O-NO 0,00 h 0 W/m 5,9 km/h (2 Bft)
Min-Datum _ 13.01.13 12.01.13 11.01.13 - - - - 07.01.13
_ Min-Zeit 23:05 14:20 04:35 - - - - 00:20
Minimum _ -1,9 C 82 % 1009,8 hPa - - - - 0,0 km/h (0 Bft)
Max-Datum _ 07.01.13 07.01.13 07.01.13 11.01.13 - 07.01.13 12.01.13 10.01.13
_ Max-Zeit 15:05 21:25 00:40 23:00 - 13:40 12:55 13:55
Maximum _ 6,1 C 100 % 1029,9 hPa 1,4 l/m - 0,08 h 367 W/m 22,5 km/h
W-SW (4 Bft)
Durchschnitt _ 1,1 C 95 % 1018,6 hPa #6,8 l/m S-SW #4:50 h 61 W/m 5,9 km/h (2 Bft)